CKU4 weather

Cut Knife Airport
Cut Knife, Saskatchewan, Canada

Public forecast

Using degrees Celsius for public forecast. Weather courtesy of forecast.io.

METAR (pilot weather report)

Closest report is North Battleford Airport, 28.2 nm (52.2 km) E. Retrieved 2019/04/22 23:00 UTC (50 minutes ago):

CYQW 222300Z AUTO 21019KT 9SM CLR 21/M05 A2979 RMK SLP098 DENSITY ALT 3000FT

TAF (pilot weather forecast)

Closest forecast is North Battleford Airport, 28.2 nm (52.2 km) E. Retrieved 2019/04/22 18:39 UTC (5 hours ago):

TAF CYQW 221738Z 2218/2306 16012G22KT P6SM FEW150 BKN250 BECMG 2218/2220 18020G30KT FM222200 22015G25KT P6SM BKN110 BECMG 2301/2303 18010KT BECMG 2304/2306 28012KT RMK FCST BASED ON AUTO OBS. NXT FCST BY 230000Z